Time;durP1;ratioP1;P1;durP2;ratioP2;P2;SDS_P1;SDS_P2;PMS_P1;PMS_P2;Temp;Humidity;BMP_temperature;BMP_pressure;BME280_temperature;BME280_humidity;BME280_pressure;Samples;Min_cycle;Max_cycle;Signal;HPM_P1;HPM_P2
2023/03/08 00:02:17;;;;;;;29.73;15.23;;;;;;;8.24;67.89;97250.75;4503530;31;20076;-79
2023/03/08 00:04:43;;;;;;;31.30;15.15;;;;;;;8.27;67.70;97245.28;4489331;31;20197;-79
2023/03/08 00:07:08;;;;;;;28.12;13.80;;;;;;;8.40;67.15;97244.41;4503703;31;20092;-79
2023/03/08 00:09:34;;;;;;;27.45;14.32;;;;;;;8.62;66.12;97252.50;4503608;31;20083;-79
2023/03/08 00:11:59;;;;;;;28.65;13.88;;;;;;;8.71;65.69;97252.78;4489323;31;20336;-79
2023/03/08 00:14:24;;;;;;;27.52;13.18;;;;;;;8.15;67.76;97246.16;4503499;31;20134;-79
2023/03/08 00:16:50;;;;;;;29.48;13.10;;;;;;;8.70;65.79;97244.06;4503528;31;20075;-79
2023/03/08 00:19:15;;;;;;;25.37;12.30;;;;;;;8.43;66.39;97242.47;4503394;31;20102;-79
2023/03/08 00:21:41;;;;;;;30.10;14.45;;;;;;;8.76;65.38;97242.78;4503341;31;20366;-79
2023/03/08 00:24:06;;;;;;;28.67;13.62;;;;;;;8.34;66.94;97243.06;4503405;31;20145;-79
2023/03/08 00:26:32;;;;;;;28.20;13.55;;;;;;;8.07;67.77;97248.44;4503376;31;20117;-80
2023/03/08 00:28:57;;;;;;;28.52;12.90;;;;;;;7.71;69.55;97247.41;4503408;31;20325;-80
2023/03/08 00:31:23;;;;;;;27.90;12.88;;;;;;;8.24;67.85;97248.13;4503388;31;20192;-79
2023/03/08 00:33:52;;;;;;;30.15;12.95;;;;;;;8.20;68.01;97248.44;4503393;31;20123;-80
2023/03/08 00:36:18;;;;;;;29.85;13.90;;;;;;;8.27;67.70;97250.53;4503323;31;20105;-79
2023/03/08 00:38:45;;;;;;;26.90;13.38;;;;;;;8.12;67.80;97241.13;4488653;31;20088;-80
2023/03/08 00:41:10;;;;;;;28.55;13.45;;;;;;;8.45;66.70;97243.19;4502966;31;20151;-79
2023/03/08 00:43:36;;;;;;;33.53;15.20;;;;;;;8.43;66.17;97236.38;4503249;31;20394;-79
2023/03/08 00:46:02;;;;;;;33.30;14.90;;;;;;;8.24;65.72;97221.06;4475774;31;20118;-79
2023/03/08 00:48:28;;;;;;;36.38;16.30;;;;;;;7.58;67.32;97218.56;4488909;31;20412;-79
2023/03/08 00:50:54;;;;;;;38.85;15.80;;;;;;;7.38;67.37;97225.16;4503214;31;20115;-79
2023/03/08 00:53:19;;;;;;;36.15;16.62;;;;;;;7.53;65.69;97228.50;4503019;31;20096;-79
2023/03/08 00:55:53;;;;;;;33.80;16.73;;;;;;;7.70;64.58;97229.16;4488903;31;20215;-79
2023/03/08 00:58:19;;;;;;;35.10;15.88;;;;;;;7.72;64.35;97230.72;4502929;31;20155;-79
2023/03/08 01:00:44;;;;;;;34.22;17.15;;;;;;;7.91;63.58;97234.72;4487574;31;20080;-79
2023/03/08 01:03:10;;;;;;;35.33;16.62;;;;;;;7.98;63.25;97239.44;4502841;31;20096;-79
2023/03/08 01:05:47;;;;;;;34.63;15.73;;;;;;;8.07;63.10;97236.19;4488497;31;20123;-79
2023/03/08 01:08:13;;;;;;;33.35;16.50;;;;;;;8.13;63.01;97234.94;4503172;31;20080;-79
2023/03/08 01:10:38;;;;;;;31.98;14.73;;;;;;;8.11;63.04;97236.81;4503036;31;20493;-79
2023/03/08 01:13:05;;;;;;;32.08;15.77;;;;;;;8.16;62.97;97242.56;4503188;31;20096;-79
2023/03/08 01:15:34;;;;;;;31.75;15.68;;;;;;;8.21;62.98;97239.66;4488466;31;20198;-79
2023/03/08 01:18:00;;;;;;;30.95;14.82;;;;;;;8.18;63.02;97242.47;4488416;31;20187;-79
2023/03/08 01:20:25;;;;;;;29.98;14.80;;;;;;;8.10;63.38;97244.81;4502635;31;20111;-79
2023/03/08 01:22:51;;;;;;;35.38;16.08;;;;;;;8.19;63.16;97242.37;4502665;31;20666;-79
2023/03/08 01:25:16;;;;;;;35.00;15.63;;;;;;;8.21;62.94;97245.72;4502873;31;20106;-79
2023/03/08 01:27:41;;;;;;;33.33;15.02;;;;;;;8.11;63.27;97255.16;4488394;31;20345;-79
2023/03/08 01:30:07;;;;;;;32.88;16.45;;;;;;;7.99;63.74;97256.84;4502685;31;20419;-79
2023/03/08 01:32:33;;;;;;;33.70;16.00;;;;;;;8.15;63.12;97246.16;4502730;31;20156;-79
2023/03/08 01:35:03;;;;;;;32.65;14.57;;;;;;;8.15;63.25;97253.16;4488260;31;20100;-79
2023/03/08 01:37:29;;;;;;;30.67;13.65;;;;;;;8.04;63.36;97252.13;4502612;31;20088;-79
2023/03/08 01:39:54;;;;;;;34.25;16.37;;;;;;;8.03;63.65;97254.84;4502373;31;20135;-79
2023/03/08 01:42:20;;;;;;;28.38;13.32;;;;;;;7.92;64.23;97260.84;4502400;31;20380;-79
2023/03/08 01:44:59;;;;;;;27.02;13.50;;;;;;;7.95;64.11;97257.19;4502545;31;20156;-79
2023/03/08 01:47:29;;;;;;;27.15;12.68;;;;;;;8.09;63.70;97267.53;4502587;31;20102;-79
2023/03/08 01:50:00;;;;;;;29.73;13.88;;;;;;;8.00;64.06;97265.56;4502537;31;20439;-79
2023/03/08 01:52:30;;;;;;;32.47;15.25;;;;;;;7.86;64.76;97274.34;4488106;31;20104;-79
2023/03/08 01:54:59;;;;;;;30.83;13.43;;;;;;;7.99;64.15;97279.63;4502545;31;20111;-79
2023/03/08 01:57:54;;;;;;;27.70;12.45;;;;;;;7.64;65.08;97278.44;4488023;31;20123;-79
2023/03/08 02:00:23;;;;;;;29.35;13.68;;;;;;;7.81;64.81;97277.31;4498909;31;20076;-79
2023/03/08 02:02:54;;;;;;;25.45;12.37;;;;;;;7.84;65.11;97278.88;4488077;31;20126;-79
2023/03/08 02:05:20;;;;;;;32.25;15.32;;;;;;;7.92;64.73;97287.06;4487815;31;20513;-79
2023/03/08 02:07:45;;;;;;;29.52;13.85;;;;;;;7.40;66.56;97290.56;4502359;31;20084;-79
2023/03/08 02:10:12;;;;;;;29.00;14.07;;;;;;;7.76;65.10;97276.75;4501835;31;20481;-79
2023/03/08 02:12:38;;;;;;;33.63;15.18;;;;;;;7.81;64.56;97286.97;4487965;31;20104;-79
2023/03/08 02:15:05;;;;;;;30.02;14.85;;;;;;;7.73;64.94;97291.88;4488093;31;20091;-79
2023/03/08 02:17:33;;;;;;;32.67;14.32;;;;;;;7.29;66.75;97286.84;4488036;31;20084;-79
2023/03/08 02:20:18;;;;;;;33.13;14.48;;;;;;;7.43;66.27;97285.09;4487893;31;20164;-79
2023/03/08 02:22:45;;;;;;;28.87;13.62;;;;;;;7.73;64.89;97291.88;4501947;31;20160;-79
2023/03/08 02:25:16;;;;;;;29.58;14.00;;;;;;;7.79;64.46;97283.59;4487713;31;20099;-79
2023/03/08 02:27:42;;;;;;;27.62;12.75;;;;;;;7.78;64.23;97289.78;4487581;31;20088;-79
2023/03/08 02:30:09;;;;;;;27.10;12.60;;;;;;;7.87;64.04;97289.16;4501958;31;20419;-79
2023/03/08 02:32:35;;;;;;;31.23;14.80;;;;;;;7.77;64.29;97283.69;4501903;31;20096;-79
2023/03/08 02:35:01;;;;;;;29.50;13.75;;;;;;;7.90;63.90;97291.59;4501811;31;20126;-79
2023/03/08 02:37:26;;;;;;;30.80;13.80;;;;;;;7.77;64.40;97298.59;4501879;31;20469;-79
2023/03/08 02:39:52;;;;;;;30.05;13.68;;;;;;;7.60;65.10;97303.16;4501659;31;20130;-79
2023/03/08 02:42:17;;;;;;;30.95;15.15;;;;;;;7.72;64.52;97304.13;4487449;31;20477;-79
2023/03/08 02:44:42;;;;;;;27.75;13.13;;;;;;;7.76;64.29;97308.22;4487145;31;20112;-79
2023/03/08 02:47:08;;;;;;;30.12;13.80;;;;;;;7.76;64.19;97308.22;4501849;31;20101;-79
2023/03/08 02:49:33;;;;;;;28.62;13.50;;;;;;;7.84;63.94;97319.06;4487365;31;20092;-79
2023/03/08 02:51:59;;;;;;;31.73;13.73;;;;;;;7.89;63.72;97321.34;4501674;31;20375;-79
2023/03/08 02:54:24;;;;;;;31.40;13.55;;;;;;;7.92;63.63;97325.53;4501570;31;20080;-79
2023/03/08 02:56:50;;;;;;;29.45;13.32;;;;;;;7.85;63.70;97328.59;4501558;31;20157;-79
2023/03/08 02:59:15;;;;;;;27.58;12.75;;;;;;;7.91;63.47;97334.37;4501263;31;20215;-79
2023/03/08 03:01:40;;;;;;;31.55;13.40;;;;;;;7.92;63.33;97341.28;4501544;31;20138;-79
2023/03/08 03:04:06;;;;;;;32.70;13.88;;;;;;;7.92;63.18;97339.50;4501529;31;20133;-79
2023/03/08 03:06:32;;;;;;;30.08;13.18;;;;;;;7.94;63.12;97342.00;4487045;31;20106;-79
2023/03/08 03:08:57;;;;;;;30.25;12.73;;;;;;;7.92;63.09;97342.13;4487015;31;20107;-79
2023/03/08 03:11:23;;;;;;;29.95;13.50;;;;;;;8.03;62.80;97344.84;4487123;31;20496;-79
2023/03/08 03:13:58;;;;;;;30.08;13.38;;;;;;;8.05;62.74;97344.75;4487034;31;20123;-79
2023/03/08 03:16:24;;;;;;;27.77;13.40;;;;;;;8.01;62.98;97356.41;4501444;31;20130;-79
2023/03/08 03:18:53;;;;;;;28.77;13.88;;;;;;;7.96;63.07;97351.47;4486705;31;20076;-79
2023/03/08 03:21:19;;;;;;;30.20;14.52;;;;;;;7.98;62.90;97362.69;4486900;31;20182;-79
2023/03/08 03:23:45;;;;;;;30.98;13.65;;;;;;;8.04;62.78;97364.91;4503131;31;20115;-79
2023/03/08 03:26:16;;;;;;;29.00;13.57;;;;;;;8.04;62.69;97370.16;4503538;31;20106;-79
2023/03/08 03:28:42;;;;;;;31.90;15.00;;;;;;;7.99;62.86;97372.22;4489319;31;20187;-79
2023/03/08 03:31:19;;;;;;;32.13;13.77;;;;;;;7.91;63.19;97374.53;4489206;31;20099;-79
2023/03/08 03:33:46;;;;;;;32.72;14.35;;;;;;;7.85;63.56;97382.81;4503655;31;20114;-79
2023/03/08 03:36:14;;;;;;;30.65;13.73;;;;;;;7.26;65.86;97386.59;4489101;31;20084;-79
2023/03/08 03:38:40;;;;;;;32.55;15.18;;;;;;;7.02;67.28;97381.13;4489276;31;20099;-79
2023/03/08 03:41:11;;;;;;;34.28;15.45;;;;;;;7.08;67.38;97383.34;4503501;31;20120;-79
2023/03/08 03:43:36;;;;;;;33.38;14.73;;;;;;;6.81;68.63;97377.22;4503393;31;20164;-79
2023/03/08 03:46:04;;;;;;;33.25;13.88;;;;;;;6.94;67.97;97379.94;4489182;31;20084;-79
2023/03/08 03:48:30;;;;;;;33.92;16.12;;;;;;;6.98;67.86;97379.63;4503412;31;20084;-79
2023/03/08 03:50:57;;;;;;;34.88;14.32;;;;;;;7.15;67.03;97378.56;4503876;31;20478;-79
2023/03/08 03:53:23;;;;;;;32.22;14.27;;;;;;;7.15;66.42;97378.56;4489348;31;20176;-79
2023/03/08 03:55:49;;;;;;;35.30;15.65;;;;;;;7.33;65.65;97360.84;4503645;31;20420;-79
2023/03/08 03:58:14;;;;;;;30.98;14.95;;;;;;;7.29;65.34;97362.81;4489181;31;20126;-79
2023/03/08 04:00:39;;;;;;;31.48;13.52;;;;;;;7.46;64.32;97356.50;4503424;31;20100;-79
2023/03/08 04:03:05;;;;;;;31.58;13.48;;;;;;;7.54;63.82;97356.00;4503625;31;20321;-79
2023/03/08 04:05:30;;;;;;;30.80;14.20;;;;;;;7.11;64.61;97348.28;4503577;31;20083;-79
2023/03/08 04:07:56;;;;;;;29.08;13.15;;;;;;;7.45;63.06;97346.09;4489184;31;20112;-79
2023/03/08 04:10:21;;;;;;;28.60;13.10;;;;;;;7.12;62.49;97351.75;4503559;31;20092;-79
2023/03/08 04:12:50;;;;;;;26.75;12.13;;;;;;;6.96;61.85;97352.69;4503551;31;20088;-79
2023/03/08 04:15:16;;;;;;;24.50;11.55;;;;;;;7.07;60.12;97346.81;4503616;31;20155;-79
2023/03/08 04:17:42;;;;;;;26.67;12.18;;;;;;;7.00;57.06;97350.75;4503552;31;20096;-79
2023/03/08 04:20:07;;;;;;;24.73;11.32;;;;;;;6.94;57.69;97362.44;4488886;31;20394;-79
2023/03/08 04:22:33;;;;;;;24.30;9.75;;;;;;;7.14;54.80;97362.94;4488806;31;20123;-79
2023/03/08 04:24:58;;;;;;;23.75;10.07;;;;;;;6.82;54.52;97381.53;4503273;31;20092;-79
2023/03/08 04:27:24;;;;;;;21.10;10.05;;;;;;;7.22;52.55;97379.87;4503172;31;20092;-79
2023/03/08 04:29:49;;;;;;;23.38;9.93;;;;;;;7.18;52.65;97386.22;4488739;31;20104;-79
2023/03/08 04:32:15;;;;;;;25.62;10.35;;;;;;;7.11;53.51;97387.56;4503147;31;20483;-79
2023/03/08 04:34:41;;;;;;;25.52;10.95;;;;;;;7.37;53.84;97395.53;4488686;31;20080;-79
2023/03/08 04:37:09;;;;;;;30.95;12.27;;;;;;;7.89;56.49;97400.00;4503139;31;20110;-79
2023/03/08 04:39:34;;;;;;;25.48;11.68;;;;;;;7.72;57.18;97401.13;4488760;31;20386;-79
2023/03/08 04:42:00;;;;;;;26.98;11.98;;;;;;;7.62;57.07;97403.50;4503183;31;20080;-79
2023/03/08 04:44:25;;;;;;;24.63;10.82;;;;;;;7.31;54.58;97409.87;4488779;31;20374;-79
2023/03/08 04:46:50;;;;;;;23.30;10.40;;;;;;;7.29;54.05;97417.81;4503174;31;20080;-79
2023/03/08 04:49:16;;;;;;;24.73;10.18;;;;;;;7.28;53.13;97412.66;4503138;31;20112;-79
2023/03/08 04:51:41;;;;;;;21.15;9.48;;;;;;;6.65;54.52;97408.72;4502992;31;20108;-79
2023/03/08 04:54:07;;;;;;;26.75;9.43;;;;;;;7.20;52.35;97413.16;4488750;31;20080;-79
2023/03/08 04:56:32;;;;;;;22.87;9.35;;;;;;;7.06;52.33;97414.03;4503059;31;20110;-79
2023/03/08 04:58:57;;;;;;;23.12;9.38;;;;;;;6.79;51.71;97413.12;4502656;31;20127;-78
2023/03/08 05:01:23;;;;;;;20.55;8.27;;;;;;;7.12;51.12;97406.72;4502928;31;20402;-79
2023/03/08 05:03:49;;;;;;;20.77;8.85;;;;;;;6.99;51.78;97410.13;4503040;31;20096;-79
2023/03/08 05:06:14;;;;;;;22.62;8.77;;;;;;;7.23;50.82;97407.72;4488743;31;20080;-79
2023/03/08 05:08:40;;;;;;;22.75;9.63;;;;;;;7.67;49.91;97403.22;4488791;31;20100;-79
2023/03/08 05:11:06;;;;;;;20.90;9.20;;;;;;;7.59;49.88;97402.84;4488635;31;20114;-79
2023/03/08 05:13:34;;;;;;;23.55;8.70;;;;;;;7.45;50.11;97401.97;4488895;31;20084;-79
2023/03/08 05:15:59;;;;;;;21.30;8.68;;;;;;;7.41;49.85;97399.63;4502869;31;20076;-79
2023/03/08 05:18:25;;;;;;;20.25;8.30;;;;;;;7.32;49.85;97408.94;4488302;31;20126;-79
2023/03/08 05:20:58;;;;;;;21.40;9.05;;;;;;;6.86;50.68;97403.97;4502822;31;20487;-79
2023/03/08 05:23:24;;;;;;;18.08;7.47;;;;;;;7.14;49.80;97403.06;4488403;31;20080;-79
2023/03/08 05:26:10;;;;;;;21.85;8.77;;;;;;;6.98;50.21;97407.59;4488531;31;20145;-79
2023/03/08 05:28:36;;;;;;;20.20;8.18;;;;;;;6.97;50.21;97403.28;4488496;31;20100;-78
2023/03/08 05:31:06;;;;;;;18.52;7.70;;;;;;;7.34;48.83;97408.81;4488444;31;20127;-79
2023/03/08 05:33:33;;;;;;;19.17;8.43;;;;;;;7.27;49.19;97411.84;4502745;31;20159;-79
2023/03/08 05:35:58;;;;;;;18.30;7.22;;;;;;;7.06;49.52;97419.25;4488372;31;20132;-79
2023/03/08 05:38:24;;;;;;;18.40;7.78;;;;;;;7.29;48.33;97420.44;4475111;31;20130;-79
2023/03/08 05:40:50;;;;;;;17.55;7.10;;;;;;;7.59;47.54;97439.53;4488142;31;20096;-79
2023/03/08 05:43:16;;;;;;;16.80;7.07;;;;;;;7.70;47.35;97441.47;4502714;31;20087;-79
2023/03/08 05:45:42;;;;;;;18.52;7.22;;;;;;;7.49;47.50;97441.91;4501916;31;20087;-79
2023/03/08 05:48:08;;;;;;;17.62;7.68;;;;;;;7.31;47.50;97441.31;4502587;31;20151;-79
2023/03/08 05:50:35;;;;;;;16.87;6.87;;;;;;;7.55;47.31;97445.91;4502599;31;20088;-79
2023/03/08 05:53:01;;;;;;;17.90;6.50;;;;;;;7.93;46.38;97451.31;4488174;31;20103;-79
2023/03/08 05:55:26;;;;;;;21.00;7.53;;;;;;;8.14;46.57;97456.09;4502496;31;20465;-79
2023/03/08 05:57:51;;;;;;;18.83;8.43;;;;;;;8.47;46.58;97460.91;4502152;31;20100;-79
2023/03/08 06:00:17;;;;;;;19.65;7.22;;;;;;;8.60;46.67;97459.12;4502133;31;20114;-79
2023/03/08 06:02:43;;;;;;;19.95;8.10;;;;;;;8.63;45.67;97479.09;4502708;31;20348;-79
2023/03/08 06:05:08;;;;;;;18.80;7.50;;;;;;;8.87;45.57;97462.63;4502565;31;20080;-79
2023/03/08 06:07:34;;;;;;;18.98;8.13;;;;;;;8.62;45.41;97487.91;4502591;31;20150;-79
2023/03/08 06:09:59;;;;;;;15.73;6.60;;;;;;;8.88;45.83;97469.53;4487904;31;20103;-79
2023/03/08 06:12:24;;;;;;;18.60;7.87;;;;;;;8.54;44.76;97487.59;4488104;31;20092;-79
2023/03/08 06:14:50;;;;;;;19.75;7.95;;;;;;;8.07;45.83;97481.88;4502223;31;20088;-79
2023/03/08 06:17:15;;;;;;;17.95;6.87;;;;;;;8.65;45.52;97474.56;4502137;31;20144;-79
2023/03/08 06:19:41;;;;;;;18.65;7.75;;;;;;;8.79;44.44;97482.38;4502084;31;20084;-79
2023/03/08 06:22:06;;;;;;;16.33;6.45;;;;;;;8.80;44.28;97483.19;4502138;31;20477;-79
2023/03/08 06:24:31;;;;;;;17.37;6.70;;;;;;;8.87;44.16;97487.09;4502129;31;20122;-79
2023/03/08 06:26:58;;;;;;;17.35;6.70;;;;;;;8.60;44.49;97490.62;4487768;31;20096;-79
2023/03/08 06:29:24;;;;;;;16.37;6.50;;;;;;;8.49;44.11;97500.19;4502306;31;20141;-79
2023/03/08 06:31:49;;;;;;;17.25;6.20;;;;;;;8.28;43.73;97498.81;4502342;31;20084;-79
2023/03/08 06:34:14;;;;;;;16.20;6.22;;;;;;;8.52;43.30;97502.59;4502175;31;20088;-79
2023/03/08 06:36:40;;;;;;;15.88;6.15;;;;;;;8.71;42.73;97500.44;4502171;31;20081;-79
2023/03/08 06:39:06;;;;;;;18.77;6.25;;;;;;;8.68;43.14;97494.53;4502119;31;20111;-79
2023/03/08 06:41:31;;;;;;;17.98;6.28;;;;;;;8.82;42.18;97508.41;4487842;31;20339;-79
2023/03/08 06:43:57;;;;;;;17.40;6.97;;;;;;;9.04;42.33;97513.03;4502100;31;20380;-79
2023/03/08 06:46:22;;;;;;;16.55;6.87;;;;;;;9.18;42.27;97519.13;4487842;31;20104;-79
2023/03/08 06:48:48;;;;;;;18.98;6.00;;;;;;;9.03;42.27;97515.75;4502024;31;20075;-80
2023/03/08 06:51:14;;;;;;;15.40;6.35;;;;;;;8.99;42.57;97523.00;4501958;31;20138;-79
2023/03/08 06:53:39;;;;;;;16.62;6.32;;;;;;;9.00;42.06;97519.44;4487650;31;20105;-79
2023/03/08 06:56:06;;;;;;;18.30;7.22;;;;;;;8.82;42.68;97525.94;4487398;31;20104;-79
2023/03/08 06:58:32;;;;;;;16.48;7.30;;;;;;;9.23;41.71;97515.25;4503352;31;20092;-80
2023/03/08 07:00:58;;;;;;;18.75;7.40;;;;;;;9.40;41.43;97521.09;4503690;31;20111;-79
2023/03/08 07:03:24;;;;;;;17.20;6.22;;;;;;;9.30;41.61;97518.25;4503978;31;20112;-79
2023/03/08 07:05:50;;;;;;;17.58;6.68;;;;;;;9.22;41.69;97525.84;4503871;31;20114;-80
2023/03/08 07:08:15;;;;;;;18.27;7.37;;;;;;;8.96;41.48;97536.38;4503692;31;20092;-79
2023/03/08 07:10:41;;;;;;;15.98;6.55;;;;;;;8.85;42.16;97531.84;4503742;31;20320;-79
2023/03/08 07:13:06;;;;;;;16.73;6.80;;;;;;;9.13;41.21;97542.25;4503673;31;20384;-79
2023/03/08 07:15:32;;;;;;;16.83;6.22;;;;;;;8.95;41.45;97531.22;4503725;31;20142;-79
2023/03/08 07:17:57;;;;;;;18.05;6.82;;;;;;;8.81;41.67;97551.38;4503685;31;20121;-79
2023/03/08 07:20:25;;;;;;;18.23;6.95;;;;;;;9.20;41.48;97546.97;4503675;31;20107;-79
2023/03/08 07:22:51;;;;;;;15.50;6.60;;;;;;;9.28;41.13;97553.50;4489228;31;20110;-79
2023/03/08 07:25:18;;;;;;;15.68;6.10;;;;;;;9.08;41.31;97552.22;4503682;31;20084;-79
2023/03/08 07:27:43;;;;;;;15.53;6.93;;;;;;;8.93;41.29;97562.00;4489438;31;20156;-79
2023/03/08 07:30:10;;;;;;;17.00;6.70;;;;;;;9.23;41.03;97559.91;4503615;31;20112;-79
2023/03/08 07:32:39;;;;;;;18.50;6.60;;;;;;;8.92;40.84;97562.94;4489292;31;20124;-79
2023/03/08 07:35:06;;;;;;;16.20;7.25;;;;;;;9.24;40.81;97566.81;4503619;31;20099;-79
2023/03/08 07:37:31;;;;;;;20.80;7.47;;;;;;;9.13;41.35;97560.63;4489197;31;20108;-79
2023/03/08 07:39:57;;;;;;;16.83;6.50;;;;;;;9.13;41.02;97573.75;4503550;31;20110;-79
2023/03/08 07:42:22;;;;;;;19.58;7.47;;;;;;;9.11;41.29;97571.25;4503601;31;20424;-79
2023/03/08 07:44:47;;;;;;;16.60;7.00;;;;;;;9.39;40.93;97579.88;4503455;31;20114;-80
2023/03/08 07:47:13;;;;;;;15.82;6.80;;;;;;;9.52;40.64;97570.19;4503406;31;20107;-79
2023/03/08 07:49:38;;;;;;;16.95;7.40;;;;;;;9.44;40.88;97586.50;4503445;31;20080;-79
2023/03/08 07:52:04;;;;;;;15.70;6.47;;;;;;;9.92;40.00;97582.31;4503789;31;20399;-79
2023/03/08 07:54:29;;;;;;;16.77;7.15;;;;;;;9.65;39.77;97583.31;4503795;31;20379;-79
2023/03/08 07:56:55;;;;;;;19.27;7.50;;;;;;;9.70;40.12;97583.00;4489239;31;20099;-79
2023/03/08 07:59:22;;;;;;;23.55;8.30;;;;;;;9.80;39.62;97591.91;4503065;31;20110;-80
2023/03/08 08:01:47;;;;;;;20.90;6.90;;;;;;;9.54;40.07;97599.84;4489248;31;20084;-80
2023/03/08 08:04:12;;;;;;;19.45;6.15;;;;;;;9.63;39.99;97609.69;4489236;31;20152;-79
2023/03/08 08:06:38;;;;;;;17.73;6.72;;;;;;;9.62;40.05;97613.28;4503642;31;20144;-79
2023/03/08 08:09:05;;;;;;;25.23;7.12;;;;;;;10.18;39.38;97607.59;4503284;31;20096;-80
2023/03/08 08:11:31;;;;;;;17.45;6.80;;;;;;;9.96;39.06;97608.28;4503606;31;20092;-80
2023/03/08 08:13:56;;;;;;;17.50;6.40;;;;;;;9.63;39.50;97616.75;4503532;31;20432;-79
2023/03/08 08:16:21;;;;;;;16.92;6.50;;;;;;;9.91;38.67;97625.34;4503553;31;20084;-79
2023/03/08 08:18:47;;;;;;;17.40;6.50;;;;;;;10.12;38.52;97625.59;4503349;31;20126;-80
2023/03/08 08:21:14;;;;;;;18.17;6.47;;;;;;;9.86;38.62;97617.78;4503501;31;20364;-79
2023/03/08 08:23:40;;;;;;;17.25;6.00;;;;;;;10.45;38.13;97608.37;4503568;31;20371;-79
2023/03/08 08:26:19;;;;;;;15.95;6.10;;;;;;;9.72;38.41;97617.91;4489334;31;20104;-79
2023/03/08 08:28:47;;;;;;;15.98;6.28;;;;;;;9.86;38.26;97612.53;4489249;31;20469;-79
2023/03/08 08:31:15;;;;;;;15.68;6.32;;;;;;;10.11;38.03;97610.78;4503431;31;20079;-79
2023/03/08 08:33:41;;;;;;;15.50;5.75;;;;;;;10.03;37.97;97612.16;4503477;31;20092;-80
2023/03/08 08:36:08;;;;;;;14.13;5.37;;;;;;;9.90;38.69;97610.50;4489101;31;20120;-80
2023/03/08 08:38:34;;;;;;;16.00;6.75;;;;;;;10.25;37.53;97608.00;4503184;31;20084;-80
2023/03/08 08:41:01;;;;;;;17.20;5.68;;;;;;;10.52;36.74;97604.34;4488782;31;20118;-79
2023/03/08 08:43:27;;;;;;;17.12;6.93;;;;;;;10.48;36.90;97603.72;4488780;31;20135;-79
2023/03/08 08:45:54;;;;;;;14.27;5.93;;;;;;;10.66;36.83;97611.22;4488783;31;20131;-79
2023/03/08 08:48:20;;;;;;;15.18;6.10;;;;;;;10.55;37.19;97609.41;4503165;31;20084;-80
2023/03/08 08:50:46;;;;;;;15.20;5.87;;;;;;;10.73;36.84;97610.66;4488690;31;20126;-80
2023/03/08 08:53:11;;;;;;;15.85;6.18;;;;;;;10.34;37.33;97611.78;4502994;31;20137;-80
2023/03/08 08:55:37;;;;;;;17.62;5.93;;;;;;;10.34;37.88;97599.47;4503000;31;20083;-79
2023/03/08 08:58:03;;;;;;;15.68;5.85;;;;;;;11.00;37.10;97599.00;4502874;31;20356;-80
2023/03/08 09:00:30;;;;;;;16.15;6.22;;;;;;;11.28;36.18;97583.72;4488680;31;20092;-80
2023/03/08 09:02:55;;;;;;;15.15;6.55;;;;;;;10.95;36.83;97594.09;4502913;31;20130;-79
2023/03/08 09:05:21;;;;;;;14.57;6.10;;;;;;;11.13;35.91;97597.12;4488533;31;20367;-80
2023/03/08 09:07:46;;;;;;;15.98;6.78;;;;;;;11.26;35.66;97589.12;4502898;31;20084;-80
2023/03/08 09:10:12;;;;;;;18.67;7.25;;;;;;;11.10;35.81;97589.44;4502995;31;20065;-80
2023/03/08 09:12:37;;;;;;;14.87;6.18;;;;;;;11.37;35.67;97588.28;4502900;31;20152;-80
2023/03/08 09:15:04;;;;;;;16.75;6.20;;;;;;;11.16;35.74;97594.28;4488488;31;20115;-80
2023/03/08 09:17:32;;;;;;;16.10;6.07;;;;;;;11.19;35.69;97591.38;4488586;31;20080;-80
2023/03/08 09:19:58;;;;;;;16.50;6.20;;;;;;;11.19;36.15;97578.22;4502123;31;20077;-80
2023/03/08 09:22:23;;;;;;;14.57;6.20;;;;;;;11.50;35.83;97575.84;4503068;31;20100;-80
2023/03/08 09:24:52;;;;;;;16.50;6.07;;;;;;;11.40;35.31;97577.53;4503000;31;20111;-80
2023/03/08 09:27:17;;;;;;;20.45;6.45;;;;;;;11.28;34.87;97576.69;4503218;31;20115;-80
2023/03/08 09:29:42;;;;;;;15.82;6.62;;;;;;;11.29;35.26;97573.06;4488682;31;20081;-80
2023/03/08 09:32:08;;;;;;;16.10;6.22;;;;;;;11.69;34.94;97572.63;4503113;31;20088;-80
2023/03/08 09:34:33;;;;;;;16.42;6.22;;;;;;;12.23;34.20;97567.50;4503078;31;20110;-80
2023/03/08 09:36:59;;;;;;;14.55;5.95;;;;;;;12.50;34.17;97564.44;4503031;31;20121;-80
2023/03/08 09:39:25;;;;;;;15.52;6.03;;;;;;;12.71;33.83;97573.25;4502779;31;20080;-79
2023/03/08 09:41:53;;;;;;;15.60;6.28;;;;;;;12.58;33.36;97573.41;4502875;31;20114;-80
2023/03/08 09:44:50;;;;;;;14.40;5.47;;;;;;;12.83;33.00;97568.75;4488363;31;20119;-80
2023/03/08 09:47:28;;;;;;;16.20;5.72;;;;;;;12.77;33.01;97571.91;4488292;31;20142;-80
2023/03/08 09:50:21;;;;;;;17.43;6.77;;;;;;;12.76;33.01;97575.50;4488168;31;20088;-80
2023/03/08 09:53:19;;;;;;;15.48;5.85;;;;;;;13.02;33.06;97572.47;4438035;32;20125;-80
2023/03/08 09:55:52;;;;;;;16.10;6.10;;;;;;;13.38;33.60;97576.50;4437771;32;20464;-80
2023/03/08 09:58:32;;;;;;;14.07;5.47;;;;;;;13.42;33.34;97564.66;4424754;32;20393;-80
2023/03/08 10:01:13;;;;;;;15.68;5.62;;;;;;;13.77;32.69;97559.00;4437505;32;20144;-80
2023/03/08 10:03:47;;;;;;;14.87;6.37;;;;;;;13.45;31.88;97556.47;4424796;32;20183;-80
2023/03/08 10:06:34;;;;;;;13.43;5.85;;;;;;;13.88;32.04;97559.84;4437740;32;20085;-80
2023/03/08 10:09:00;;;;;;;13.55;5.37;;;;;;;14.08;31.81;97558.09;4437793;32;20085;-80
2023/03/08 10:11:37;;;;;;;15.40;6.20;;;;;;;14.23;31.46;97555.88;4437485;32;20162;-80
2023/03/08 10:14:18;;;;;;;18.05;6.80;;;;;;;14.32;31.18;97549.78;4437694;32;20136;-80
2023/03/08 10:16:48;;;;;;;12.80;5.95;;;;;;;13.98;30.54;97555.41;4424889;32;20115;-80
2023/03/08 10:19:22;;;;;;;13.18;5.78;;;;;;;14.40;29.65;97547.25;4424639;32;20119;-80
2023/03/08 10:21:50;;;;;;;18.85;9.57;;;;;;;14.52;29.77;97550.62;4437455;32;20177;-80
2023/03/08 10:24:25;;;;;;;22.37;10.57;;;;;;;14.66;32.35;97552.91;4424678;32;20113;-80
2023/03/08 10:26:52;;;;;;;25.58;10.00;;;;;;;14.79;33.26;97544.66;4425039;32;20156;-80
2023/03/08 10:29:18;;;;;;;19.20;8.85;;;;;;;14.90;32.92;97544.50;4461680;31;20103;-80
2023/03/08 10:31:45;;;;;;;24.05;9.75;;;;;;;14.92;32.79;97547.00;4502734;31;20098;-80
2023/03/08 10:34:18;;;;;;;19.10;9.25;;;;;;;14.83;33.58;97547.84;4489910;31;20096;-80
2023/03/08 10:36:49;;;;;;;20.25;9.90;;;;;;;15.05;32.96;97542.25;4489970;31;20514;-80
2023/03/08 10:39:15;;;;;;;20.50;9.43;;;;;;;15.00;32.85;97554.25;4503967;31;20156;-80
2023/03/08 10:41:47;;;;;;;21.42;10.15;;;;;;;14.88;33.20;97550.94;4489720;31;20092;-80
2023/03/08 10:44:35;;;;;;;19.15;8.90;;;;;;;15.03;32.91;97544.22;4489615;31;20146;-80
2023/03/08 10:47:03;;;;;;;18.03;9.03;;;;;;;15.03;32.90;97551.34;4489772;31;20445;-80
2023/03/08 10:49:28;;;;;;;19.92;8.95;;;;;;;14.73;33.46;97561.13;4503935;31;20522;-80
2023/03/08 10:51:57;;;;;;;22.10;9.20;;;;;;;14.73;33.64;97559.28;4503895;31;20153;-80
2023/03/08 10:54:23;;;;;;;20.25;9.35;;;;;;;15.08;32.71;97543.78;4489351;31;20154;-80
2023/03/08 10:56:55;;;;;;;19.50;9.27;;;;;;;14.60;33.20;97540.19;4489495;31;20111;-81
2023/03/08 10:59:26;;;;;;;22.42;9.75;;;;;;;15.17;32.54;97526.19;4503570;31;20079;-80
2023/03/08 11:01:58;;;;;;;18.50;9.45;;;;;;;15.22;32.34;97531.87;4489498;31;20151;-80
2023/03/08 11:04:26;;;;;;;20.17;9.20;;;;;;;15.39;31.96;97514.38;4489450;31;20168;-80
2023/03/08 11:06:52;;;;;;;;;;;;;;;15.37;32.31;97521.63;4504296;31;20647;-80
2023/03/08 11:09:22;;;;;;;22.45;9.95;;;;;;;15.33;32.10;97532.53;4489550;31;19975;-80
2023/03/08 11:11:48;;;;;;;20.08;10.35;;;;;;;14.92;32.85;97525.81;4503819;31;20087;-80
2023/03/08 11:14:14;;;;;;;20.08;9.45;;;;;;;14.73;32.94;97522.19;4489181;31;20095;-80
2023/03/08 11:16:45;;;;;;;19.25;9.07;;;;;;;14.90;32.85;97510.03;4476221;31;20100;-80
2023/03/08 11:19:30;;;;;;;18.60;8.70;;;;;;;15.29;32.10;97499.31;4503671;31;20063;-80
2023/03/08 11:22:04;;;;;;;19.12;8.50;;;;;;;15.52;31.83;97506.91;4504006;31;20067;-80
2023/03/08 11:24:48;;;;;;;19.98;8.75;;;;;;;15.35;32.14;97492.59;4503596;31;20084;-80
2023/03/08 11:27:32;;;;;;;18.62;8.57;;;;;;;15.68;31.79;97498.31;4503793;31;20477;-80
2023/03/08 11:30:18;;;;;;;18.35;8.65;;;;;;;15.85;30.68;97502.03;4503607;31;20088;-80
2023/03/08 11:32:44;;;;;;;19.08;8.95;;;;;;;14.97;31.73;97507.66;4503857;31;20166;-80